sensor_id;sensor_type;location;lat;lon;timestamp;temperature;humidity
25945;SHT31;13742;49.306;8.636;2022-08-19T00:00:54;22.60;65.60
25945;SHT31;13742;49.306;8.636;2022-08-19T00:01:55;22.56;65.96
25945;SHT31;13742;49.306;8.636;2022-08-19T00:02:54;22.47;66.25
25945;SHT31;13742;49.306;8.636;2022-08-19T00:03:54;22.47;66.16
25945;SHT31;13742;49.306;8.636;2022-08-19T00:04:54;22.51;66.09
25945;SHT31;13742;49.306;8.636;2022-08-19T00:05:54;22.52;65.94
25945;SHT31;13742;49.306;8.636;2022-08-19T00:06:54;22.53;66.07
25945;SHT31;13742;49.306;8.636;2022-08-19T00:07:54;22.53;65.81
25945;SHT31;13742;49.306;8.636;2022-08-19T00:08:54;22.55;65.95
25945;SHT31;13742;49.306;8.636;2022-08-19T00:09:54;22.52;66.01
25945;SHT31;13742;49.306;8.636;2022-08-19T00:10:54;22.47;66.01
25945;SHT31;13742;49.306;8.636;2022-08-19T00:11:56;22.46;65.92
25945;SHT31;13742;49.306;8.636;2022-08-19T00:12:54;22.47;65.94
25945;SHT31;13742;49.306;8.636;2022-08-19T00:13:55;22.43;66.07
25945;SHT31;13742;49.306;8.636;2022-08-19T00:14:54;22.39;66.17
25945;SHT31;13742;49.306;8.636;2022-08-19T00:15:55;22.36;66.33
25945;SHT31;13742;49.306;8.636;2022-08-19T00:16:54;22.33;66.43
25945;SHT31;13742;49.306;8.636;2022-08-19T00:17:54;22.38;66.23
25945;SHT31;13742;49.306;8.636;2022-08-19T00:18:55;22.38;66.52
25945;SHT31;13742;49.306;8.636;2022-08-19T00:19:54;22.36;66.17
25945;SHT31;13742;49.306;8.636;2022-08-19T00:20:54;22.36;66.42
25945;SHT31;13742;49.306;8.636;2022-08-19T00:21:55;22.26;66.81
25945;SHT31;13742;49.306;8.636;2022-08-19T00:22:54;22.31;66.62
25945;SHT31;13742;49.306;8.636;2022-08-19T00:23:55;22.31;66.54
25945;SHT31;13742;49.306;8.636;2022-08-19T00:24:54;22.28;66.72
25945;SHT31;13742;49.306;8.636;2022-08-19T00:25:54;22.28;66.79
25945;SHT31;13742;49.306;8.636;2022-08-19T00:26:55;22.29;66.79
25945;SHT31;13742;49.306;8.636;2022-08-19T00:27:54;22.31;66.77
25945;SHT31;13742;49.306;8.636;2022-08-19T00:28:54;22.33;66.85
25945;SHT31;13742;49.306;8.636;2022-08-19T00:29:54;22.33;66.53
25945;SHT31;13742;49.306;8.636;2022-08-19T00:30:54;22.35;66.79
25945;SHT31;13742;49.306;8.636;2022-08-19T00:31:54;22.38;66.76
25945;SHT31;13742;49.306;8.636;2022-08-19T00:32:55;22.40;66.53
25945;SHT31;13742;49.306;8.636;2022-08-19T00:33:54;22.39;66.57
25945;SHT31;13742;49.306;8.636;2022-08-19T00:34:54;22.38;66.67
25945;SHT31;13742;49.306;8.636;2022-08-19T00:35:55;22.38;66.38
25945;SHT31;13742;49.306;8.636;2022-08-19T00:36:54;22.32;66.66
25945;SHT31;13742;49.306;8.636;2022-08-19T00:37:54;22.32;66.80
25945;SHT31;13742;49.306;8.636;2022-08-19T00:38:54;22.33;66.67
25945;SHT31;13742;49.306;8.636;2022-08-19T00:39:54;22.26;66.71
25945;SHT31;13742;49.306;8.636;2022-08-19T00:40:55;22.25;67.27
25945;SHT31;13742;49.306;8.636;2022-08-19T00:41:54;22.08;67.85
25945;SHT31;13742;49.306;8.636;2022-08-19T00:42:54;22.16;67.61
25945;SHT31;13742;49.306;8.636;2022-08-19T00:44:54;22.16;67.42
25945;SHT31;13742;49.306;8.636;2022-08-19T00:45:54;22.14;67.37
25945;SHT31;13742;49.306;8.636;2022-08-19T00:46:57;22.15;67.29
25945;SHT31;13742;49.306;8.636;2022-08-19T00:47:54;22.11;67.55
25945;SHT31;13742;49.306;8.636;2022-08-19T00:48:54;22.15;67.35
25945;SHT31;13742;49.306;8.636;2022-08-19T00:49:56;22.18;66.98
25945;SHT31;13742;49.306;8.636;2022-08-19T00:50:55;22.18;67.19
25945;SHT31;13742;49.306;8.636;2022-08-19T00:52:54;22.21;66.96
25945;SHT31;13742;49.306;8.636;2022-08-19T00:53:55;22.22;67.14
25945;SHT31;13742;49.306;8.636;2022-08-19T00:54:54;22.21;67.16
25945;SHT31;13742;49.306;8.636;2022-08-19T00:55:56;22.24;66.90
25945;SHT31;13742;49.306;8.636;2022-08-19T00:56:54;22.24;66.69
25945;SHT31;13742;49.306;8.636;2022-08-19T00:57:58;22.26;67.00
25945;SHT31;13742;49.306;8.636;2022-08-19T00:58:56;22.28;66.73
25945;SHT31;13742;49.306;8.636;2022-08-19T00:59:56;22.31;66.79
25945;SHT31;13742;49.306;8.636;2022-08-19T01:00:54;22.31;66.88
25945;SHT31;13742;49.306;8.636;2022-08-19T01:01:54;22.32;66.97
25945;SHT31;13742;49.306;8.636;2022-08-19T01:02:54;22.28;67.10
25945;SHT31;13742;49.306;8.636;2022-08-19T01:03:54;22.31;66.91
25945;SHT31;13742;49.306;8.636;2022-08-19T01:04:54;22.31;66.95
25945;SHT31;13742;49.306;8.636;2022-08-19T01:05:54;22.31;66.92
25945;SHT31;13742;49.306;8.636;2022-08-19T01:06:55;22.32;66.89
25945;SHT31;13742;49.306;8.636;2022-08-19T01:07:56;22.33;66.96
25945;SHT31;13742;49.306;8.636;2022-08-19T01:08:54;22.32;67.16
25945;SHT31;13742;49.306;8.636;2022-08-19T01:09:54;22.31;67.03
25945;SHT31;13742;49.306;8.636;2022-08-19T01:10:56;22.15;67.50
25945;SHT31;13742;49.306;8.636;2022-08-19T01:11:54;22.18;67.21
25945;SHT31;13742;49.306;8.636;2022-08-19T01:12:54;22.08;67.63
25945;SHT31;13742;49.306;8.636;2022-08-19T01:13:54;22.07;67.55
25945;SHT31;13742;49.306;8.636;2022-08-19T01:14:55;22.04;67.64
25945;SHT31;13742;49.306;8.636;2022-08-19T01:16:02;22.01;67.84
25945;SHT31;13742;49.306;8.636;2022-08-19T01:16:55;22.07;67.67
25945;SHT31;13742;49.306;8.636;2022-08-19T01:17:55;22.09;67.37
25945;SHT31;13742;49.306;8.636;2022-08-19T01:18:54;22.08;67.27
25945;SHT31;13742;49.306;8.636;2022-08-19T01:19:54;22.09;67.46
25945;SHT31;13742;49.306;8.636;2022-08-19T01:20:56;22.14;67.51
25945;SHT31;13742;49.306;8.636;2022-08-19T01:22:56;22.15;67.56
25945;SHT31;13742;49.306;8.636;2022-08-19T01:23:54;22.16;67.61
25945;SHT31;13742;49.306;8.636;2022-08-19T01:24:54;22.12;67.65
25945;SHT31;13742;49.306;8.636;2022-08-19T01:25:55;22.11;67.71
25945;SHT31;13742;49.306;8.636;2022-08-19T01:26:54;22.14;67.78
25945;SHT31;13742;49.306;8.636;2022-08-19T01:27:54;22.14;67.51
25945;SHT31;13742;49.306;8.636;2022-08-19T01:28:56;22.12;67.46
25945;SHT31;13742;49.306;8.636;2022-08-19T01:29:54;22.15;67.63
25945;SHT31;13742;49.306;8.636;2022-08-19T01:30:55;22.14;67.55
25945;SHT31;13742;49.306;8.636;2022-08-19T01:31:54;22.16;67.64
25945;SHT31;13742;49.306;8.636;2022-08-19T01:32:54;22.18;67.55
25945;SHT31;13742;49.306;8.636;2022-08-19T01:33:56;22.14;67.56
25945;SHT31;13742;49.306;8.636;2022-08-19T01:34:53;22.09;67.43
25945;SHT31;13742;49.306;8.636;2022-08-19T01:36:03;22.12;67.45
25945;SHT31;13742;49.306;8.636;2022-08-19T01:36:54;22.12;67.30
25945;SHT31;13742;49.306;8.636;2022-08-19T01:37:57;22.14;67.44
25945;SHT31;13742;49.306;8.636;2022-08-19T01:38:54;22.16;67.14
25945;SHT31;13742;49.306;8.636;2022-08-19T01:39:53;22.16;67.69
25945;SHT31;13742;49.306;8.636;2022-08-19T01:40:53;22.14;67.75
25945;SHT31;13742;49.306;8.636;2022-08-19T01:41:57;22.14;67.81
25945;SHT31;13742;49.306;8.636;2022-08-19T01:42:54;22.11;67.84
25945;SHT31;13742;49.306;8.636;2022-08-19T01:43:53;22.09;67.85
25945;SHT31;13742;49.306;8.636;2022-08-19T01:44:53;22.05;67.93
25945;SHT31;13742;49.306;8.636;2022-08-19T01:45:54;22.02;67.86
25945;SHT31;13742;49.306;8.636;2022-08-19T01:46:54;22.01;67.53
25945;SHT31;13742;49.306;8.636;2022-08-19T01:47:54;22.08;67.39
25945;SHT31;13742;49.306;8.636;2022-08-19T01:48:53;22.09;67.30
25945;SHT31;13742;49.306;8.636;2022-08-19T01:49:53;22.11;67.50
25945;SHT31;13742;49.306;8.636;2022-08-19T01:50:54;22.11;67.27
25945;SHT31;13742;49.306;8.636;2022-08-19T01:51:54;22.12;67.22
25945;SHT31;13742;49.306;8.636;2022-08-19T01:52:54;22.14;67.05
25945;SHT31;13742;49.306;8.636;2022-08-19T01:53:54;22.16;67.03
25945;SHT31;13742;49.306;8.636;2022-08-19T01:54:54;22.15;66.94
25945;SHT31;13742;49.306;8.636;2022-08-19T01:55:54;22.16;66.87
25945;SHT31;13742;49.306;8.636;2022-08-19T01:56:59;22.18;67.24
25945;SHT31;13742;49.306;8.636;2022-08-19T01:57:56;22.21;67.15
25945;SHT31;13742;49.306;8.636;2022-08-19T01:58:58;22.21;67.09
25945;SHT31;13742;49.306;8.636;2022-08-19T01:59:53;22.24;66.98
25945;SHT31;13742;49.306;8.636;2022-08-19T02:00:53;22.25;66.91
25945;SHT31;13742;49.306;8.636;2022-08-19T02:01:53;22.24;67.11
25945;SHT31;13742;49.306;8.636;2022-08-19T02:02:54;22.25;66.88
25945;SHT31;13742;49.306;8.636;2022-08-19T02:03:54;22.26;67.18
25945;SHT31;13742;49.306;8.636;2022-08-19T02:04:54;22.28;66.94
25945;SHT31;13742;49.306;8.636;2022-08-19T02:06:00;22.26;66.95
25945;SHT31;13742;49.306;8.636;2022-08-19T02:06:53;22.26;67.06
25945;SHT31;13742;49.306;8.636;2022-08-19T02:07:53;22.28;66.86
25945;SHT31;13742;49.306;8.636;2022-08-19T02:08:54;22.28;67.03
25945;SHT31;13742;49.306;8.636;2022-08-19T02:09:55;22.26;66.93
25945;SHT31;13742;49.306;8.636;2022-08-19T02:10:53;22.28;66.92
25945;SHT31;13742;49.306;8.636;2022-08-19T02:11:53;22.28;66.84
25945;SHT31;13742;49.306;8.636;2022-08-19T02:12:53;22.29;66.96
25945;SHT31;13742;49.306;8.636;2022-08-19T02:13:54;22.26;67.38
25945;SHT31;13742;49.306;8.636;2022-08-19T02:14:53;22.26;67.14
25945;SHT31;13742;49.306;8.636;2022-08-19T02:15:54;22.31;67.13
25945;SHT31;13742;49.306;8.636;2022-08-19T02:16:53;22.26;67.39
25945;SHT31;13742;49.306;8.636;2022-08-19T02:17:53;22.19;67.86
25945;SHT31;13742;49.306;8.636;2022-08-19T02:18:54;22.04;68.29
25945;SHT31;13742;49.306;8.636;2022-08-19T02:19:54;22.01;68.26
25945;SHT31;13742;49.306;8.636;2022-08-19T02:20:54;22.00;68.43
25945;SHT31;13742;49.306;8.636;2022-08-19T02:21:53;21.97;68.54
25945;SHT31;13742;49.306;8.636;2022-08-19T02:22:53;21.87;68.96
25945;SHT31;13742;49.306;8.636;2022-08-19T02:23:54;21.80;69.03
25945;SHT31;13742;49.306;8.636;2022-08-19T02:24:54;21.77;69.18
25945;SHT31;13742;49.306;8.636;2022-08-19T02:25:53;21.78;69.21
25945;SHT31;13742;49.306;8.636;2022-08-19T02:26:54;21.70;69.19
25945;SHT31;13742;49.306;8.636;2022-08-19T02:27:54;21.70;69.44
25945;SHT31;13742;49.306;8.636;2022-08-19T02:28:54;21.67;69.46
25945;SHT31;13742;49.306;8.636;2022-08-19T02:29:53;21.61;69.87
25945;SHT31;13742;49.306;8.636;2022-08-19T02:30:53;21.63;69.81
25945;SHT31;13742;49.306;8.636;2022-08-19T02:31:53;21.64;69.84
25945;SHT31;13742;49.306;8.636;2022-08-19T02:32:53;21.63;69.76
25945;SHT31;13742;49.306;8.636;2022-08-19T02:33:55;21.50;70.18
25945;SHT31;13742;49.306;8.636;2022-08-19T02:34:53;21.50;70.05
25945;SHT31;13742;49.306;8.636;2022-08-19T02:35:54;21.54;70.13
25945;SHT31;13742;49.306;8.636;2022-08-19T02:36:53;21.56;69.87
25945;SHT31;13742;49.306;8.636;2022-08-19T02:37:59;21.56;69.83
25945;SHT31;13742;49.306;8.636;2022-08-19T02:38:54;21.54;70.19
25945;SHT31;13742;49.306;8.636;2022-08-19T02:39:54;21.52;70.27
25945;SHT31;13742;49.306;8.636;2022-08-19T02:41:02;21.53;69.89
25945;SHT31;13742;49.306;8.636;2022-08-19T02:41:53;21.53;70.00
25945;SHT31;13742;49.306;8.636;2022-08-19T02:42:54;21.54;69.60
25945;SHT31;13742;49.306;8.636;2022-08-19T02:43:55;21.57;70.01
25945;SHT31;13742;49.306;8.636;2022-08-19T02:44:55;21.57;69.81
25945;SHT31;13742;49.306;8.636;2022-08-19T02:45:54;21.60;70.02
25945;SHT31;13742;49.306;8.636;2022-08-19T02:46:53;21.56;69.99
25945;SHT31;13742;49.306;8.636;2022-08-19T02:47:53;21.54;70.19
25945;SHT31;13742;49.306;8.636;2022-08-19T02:48:56;21.42;70.63
25945;SHT31;13742;49.306;8.636;2022-08-19T02:49:53;21.40;70.72
25945;SHT31;13742;49.306;8.636;2022-08-19T02:50:56;21.36;70.93
25945;SHT31;13742;49.306;8.636;2022-08-19T02:51:54;21.27;71.19
25945;SHT31;13742;49.306;8.636;2022-08-19T02:52:53;21.33;71.05
25945;SHT31;13742;49.306;8.636;2022-08-19T02:53:54;21.30;71.20
25945;SHT31;13742;49.306;8.636;2022-08-19T02:54:57;21.23;71.44
25945;SHT31;13742;49.306;8.636;2022-08-19T02:55:54;21.26;71.24
25945;SHT31;13742;49.306;8.636;2022-08-19T02:56:53;21.33;70.80
25945;SHT31;13742;49.306;8.636;2022-08-19T02:57:54;21.26;71.17
25945;SHT31;13742;49.306;8.636;2022-08-19T02:58:54;21.20;71.28
25945;SHT31;13742;49.306;8.636;2022-08-19T02:59:53;21.20;71.34
25945;SHT31;13742;49.306;8.636;2022-08-19T03:00:55;21.17;71.44
25945;SHT31;13742;49.306;8.636;2022-08-19T03:01:53;21.16;71.45
25945;SHT31;13742;49.306;8.636;2022-08-19T03:02:53;21.17;71.44
25945;SHT31;13742;49.306;8.636;2022-08-19T03:03:55;21.19;71.54
25945;SHT31;13742;49.306;8.636;2022-08-19T03:04:53;21.20;71.42
25945;SHT31;13742;49.306;8.636;2022-08-19T03:06:03;21.22;71.40
25945;SHT31;13742;49.306;8.636;2022-08-19T03:06:54;21.23;71.38
25945;SHT31;13742;49.306;8.636;2022-08-19T03:07:53;21.32;71.02
25945;SHT31;13742;49.306;8.636;2022-08-19T03:08:54;21.30;70.68
25945;SHT31;13742;49.306;8.636;2022-08-19T03:09:53;21.36;70.77
25945;SHT31;13742;49.306;8.636;2022-08-19T03:10:54;21.36;70.61
25945;SHT31;13742;49.306;8.636;2022-08-19T03:11:53;21.29;70.83
25945;SHT31;13742;49.306;8.636;2022-08-19T03:12:53;21.23;70.93
25945;SHT31;13742;49.306;8.636;2022-08-19T03:13:55;21.26;71.03
25945;SHT31;13742;49.306;8.636;2022-08-19T03:14:54;21.19;71.18
25945;SHT31;13742;49.306;8.636;2022-08-19T03:15:53;21.12;71.18
25945;SHT31;13742;49.306;8.636;2022-08-19T03:16:53;21.16;71.03
25945;SHT31;13742;49.306;8.636;2022-08-19T03:17:54;21.19;71.00
25945;SHT31;13742;49.306;8.636;2022-08-19T03:18:56;21.20;70.82
25945;SHT31;13742;49.306;8.636;2022-08-19T03:19:53;21.25;70.78
25945;SHT31;13742;49.306;8.636;2022-08-19T03:20:54;21.25;70.94
25945;SHT31;13742;49.306;8.636;2022-08-19T03:21:55;21.17;70.86
25945;SHT31;13742;49.306;8.636;2022-08-19T03:22:53;21.23;70.66
25945;SHT31;13742;49.306;8.636;2022-08-19T03:23:55;21.27;70.66
25945;SHT31;13742;49.306;8.636;2022-08-19T03:24:53;21.27;70.64
25945;SHT31;13742;49.306;8.636;2022-08-19T03:25:54;21.26;70.55
25945;SHT31;13742;49.306;8.636;2022-08-19T03:26:57;21.27;70.68
25945;SHT31;13742;49.306;8.636;2022-08-19T03:27:53;21.32;70.67
25945;SHT31;13742;49.306;8.636;2022-08-19T03:28:53;21.32;70.35
25945;SHT31;13742;49.306;8.636;2022-08-19T03:29:53;21.32;70.53
25945;SHT31;13742;49.306;8.636;2022-08-19T03:30:57;21.33;70.35
25945;SHT31;13742;49.306;8.636;2022-08-19T03:31:54;21.33;70.50
25945;SHT31;13742;49.306;8.636;2022-08-19T03:32:53;21.35;70.33
25945;SHT31;13742;49.306;8.636;2022-08-19T03:33:53;21.33;70.42
25945;SHT31;13742;49.306;8.636;2022-08-19T03:34:53;21.39;70.40
25945;SHT31;13742;49.306;8.636;2022-08-19T03:35:59;21.37;70.13
25945;SHT31;13742;49.306;8.636;2022-08-19T03:36:56;21.36;70.33
25945;SHT31;13742;49.306;8.636;2022-08-19T03:37:53;21.29;70.62
25945;SHT31;13742;49.306;8.636;2022-08-19T03:38:57;21.29;70.44
25945;SHT31;13742;49.306;8.636;2022-08-19T03:39:53;21.29;70.46
25945;SHT31;13742;49.306;8.636;2022-08-19T03:40:53;21.27;70.64
25945;SHT31;13742;49.306;8.636;2022-08-19T03:41:55;21.20;70.73
25945;SHT31;13742;49.306;8.636;2022-08-19T03:42:53;21.22;70.78
25945;SHT31;13742;49.306;8.636;2022-08-19T03:43:54;21.15;71.06
25945;SHT31;13742;49.306;8.636;2022-08-19T03:44:53;21.23;70.81
25945;SHT31;13742;49.306;8.636;2022-08-19T03:45:59;21.22;70.93
25945;SHT31;13742;49.306;8.636;2022-08-19T03:46:57;21.19;71.08
25945;SHT31;13742;49.306;8.636;2022-08-19T03:47:54;21.07;71.28
25945;SHT31;13742;49.306;8.636;2022-08-19T03:48:56;21.05;71.46
25945;SHT31;13742;49.306;8.636;2022-08-19T03:49:53;21.06;71.60
25945;SHT31;13742;49.306;8.636;2022-08-19T03:50:53;21.01;71.81
25945;SHT31;13742;49.306;8.636;2022-08-19T03:51:56;20.98;71.74
25945;SHT31;13742;49.306;8.636;2022-08-19T03:52:53;20.94;72.04
25945;SHT31;13742;49.306;8.636;2022-08-19T03:53:55;20.94;72.11
25945;SHT31;13742;49.306;8.636;2022-08-19T03:54:53;20.86;72.26
25945;SHT31;13742;49.306;8.636;2022-08-19T03:55:54;20.81;72.40
25945;SHT31;13742;49.306;8.636;2022-08-19T03:56:55;20.82;72.50
25945;SHT31;13742;49.306;8.636;2022-08-19T03:57:53;20.76;72.65
25945;SHT31;13742;49.306;8.636;2022-08-19T03:58:54;20.75;72.71
25945;SHT31;13742;49.306;8.636;2022-08-19T03:59:53;20.76;72.68
25945;SHT31;13742;49.306;8.636;2022-08-19T04:00:55;20.82;72.41
25945;SHT31;13742;49.306;8.636;2022-08-19T04:01:56;20.88;72.31
25945;SHT31;13742;49.306;8.636;2022-08-19T04:02:53;20.92;72.24
25945;SHT31;13742;49.306;8.636;2022-08-19T04:03:55;20.95;71.96
25945;SHT31;13742;49.306;8.636;2022-08-19T04:04:54;20.98;71.88
25945;SHT31;13742;49.306;8.636;2022-08-19T04:05:53;21.01;71.61
25945;SHT31;13742;49.306;8.636;2022-08-19T04:06:53;21.02;71.47
25945;SHT31;13742;49.306;8.636;2022-08-19T04:07:55;21.01;71.39
25945;SHT31;13742;49.306;8.636;2022-08-19T04:08:56;21.02;71.41
25945;SHT31;13742;49.306;8.636;2022-08-19T04:09:54;21.06;71.25
25945;SHT31;13742;49.306;8.636;2022-08-19T04:10:54;21.06;71.32
25945;SHT31;13742;49.306;8.636;2022-08-19T04:11:55;21.09;71.26
25945;SHT31;13742;49.306;8.636;2022-08-19T04:12:53;21.07;71.22
25945;SHT31;13742;49.306;8.636;2022-08-19T04:13:54;21.07;71.09
25945;SHT31;13742;49.306;8.636;2022-08-19T04:14:53;21.09;71.25
25945;SHT31;13742;49.306;8.636;2022-08-19T04:15:53;21.09;71.14
25945;SHT31;13742;49.306;8.636;2022-08-19T04:16:54;21.09;70.94
25945;SHT31;13742;49.306;8.636;2022-08-19T04:17:54;21.12;71.24
25945;SHT31;13742;49.306;8.636;2022-08-19T04:18:55;21.12;71.09
25945;SHT31;13742;49.306;8.636;2022-08-19T04:19:53;21.16;71.18
25945;SHT31;13742;49.306;8.636;2022-08-19T04:20:53;21.16;71.10
25945;SHT31;13742;49.306;8.636;2022-08-19T04:21:54;21.16;70.80
25945;SHT31;13742;49.306;8.636;2022-08-19T04:22:53;21.17;70.70
25945;SHT31;13742;49.306;8.636;2022-08-19T04:23:54;21.19;71.00
25945;SHT31;13742;49.306;8.636;2022-08-19T04:24:53;21.20;70.98
25945;SHT31;13742;49.306;8.636;2022-08-19T04:25:54;21.23;70.75
25945;SHT31;13742;49.306;8.636;2022-08-19T04:26:53;21.25;70.83
25945;SHT31;13742;49.306;8.636;2022-08-19T04:27:53;21.27;70.68
25945;SHT31;13742;49.306;8.636;2022-08-19T04:28:54;21.25;70.56
25945;SHT31;13742;49.306;8.636;2022-08-19T04:29:53;21.25;70.56
25945;SHT31;13742;49.306;8.636;2022-08-19T04:30:54;21.27;70.59
25945;SHT31;13742;49.306;8.636;2022-08-19T04:31:55;21.29;70.47
25945;SHT31;13742;49.306;8.636;2022-08-19T04:32:53;21.32;70.83
25945;SHT31;13742;49.306;8.636;2022-08-19T04:33:58;21.26;70.99
25945;SHT31;13742;49.306;8.636;2022-08-19T04:34:59;21.25;71.18
25945;SHT31;13742;49.306;8.636;2022-08-19T04:35:53;21.17;71.45
25945;SHT31;13742;49.306;8.636;2022-08-19T04:36:56;21.17;71.64
25945;SHT31;13742;49.306;8.636;2022-08-19T04:37:53;21.09;71.69
25945;SHT31;13742;49.306;8.636;2022-08-19T04:39:05;21.03;72.18
25945;SHT31;13742;49.306;8.636;2022-08-19T04:39:59;21.03;72.17
25945;SHT31;13742;49.306;8.636;2022-08-19T04:40:58;21.09;72.08
25945;SHT31;13742;49.306;8.636;2022-08-19T04:41:58;21.07;72.09
25945;SHT31;13742;49.306;8.636;2022-08-19T04:42:53;21.10;71.99
25945;SHT31;13742;49.306;8.636;2022-08-19T04:43:53;21.13;71.82
25945;SHT31;13742;49.306;8.636;2022-08-19T04:44:54;21.05;71.92
25945;SHT31;13742;49.306;8.636;2022-08-19T04:45:53;21.07;71.67
25945;SHT31;13742;49.306;8.636;2022-08-19T04:46:53;21.05;71.63
25945;SHT31;13742;49.306;8.636;2022-08-19T04:47:55;21.07;71.59
25945;SHT31;13742;49.306;8.636;2022-08-19T04:48:56;21.09;71.54
25945;SHT31;13742;49.306;8.636;2022-08-19T04:49:53;21.07;71.39
25945;SHT31;13742;49.306;8.636;2022-08-19T04:50:58;21.09;71.35
25945;SHT31;13742;49.306;8.636;2022-08-19T04:51:56;21.12;71.41
25945;SHT31;13742;49.306;8.636;2022-08-19T04:52:55;21.12;71.43
25945;SHT31;13742;49.306;8.636;2022-08-19T04:53:53;21.10;71.36
25945;SHT31;13742;49.306;8.636;2022-08-19T04:54:55;21.15;71.70
25945;SHT31;13742;49.306;8.636;2022-08-19T04:55:57;21.15;71.45
25945;SHT31;13742;49.306;8.636;2022-08-19T04:56:53;21.15;71.34
25945;SHT31;13742;49.306;8.636;2022-08-19T04:57:54;21.12;71.60
25945;SHT31;13742;49.306;8.636;2022-08-19T04:58:55;21.12;71.23
25945;SHT31;13742;49.306;8.636;2022-08-19T04:59:55;21.13;71.40
25945;SHT31;13742;49.306;8.636;2022-08-19T05:00:54;21.09;71.94
25945;SHT31;13742;49.306;8.636;2022-08-19T05:01:53;21.12;71.78
25945;SHT31;13742;49.306;8.636;2022-08-19T05:02:53;21.07;71.64
25945;SHT31;13742;49.306;8.636;2022-08-19T05:03:54;21.09;71.41
25945;SHT31;13742;49.306;8.636;2022-08-19T05:04:58;21.10;71.47
25945;SHT31;13742;49.306;8.636;2022-08-19T05:05:53;21.13;71.52
25945;SHT31;13742;49.306;8.636;2022-08-19T05:06:54;21.09;71.46
25945;SHT31;13742;49.306;8.636;2022-08-19T05:07:53;21.12;71.50
25945;SHT31;13742;49.306;8.636;2022-08-19T05:08:54;21.07;71.53
25945;SHT31;13742;49.306;8.636;2022-08-19T05:09:54;21.05;71.74
25945;SHT31;13742;49.306;8.636;2022-08-19T05:10:53;21.02;71.90
25945;SHT31;13742;49.306;8.636;2022-08-19T05:11:53;20.99;72.27
25945;SHT31;13742;49.306;8.636;2022-08-19T05:12:53;21.02;71.93
25945;SHT31;13742;49.306;8.636;2022-08-19T05:13:54;20.89;72.58
25945;SHT31;13742;49.306;8.636;2022-08-19T05:14:54;20.94;72.35
25945;SHT31;13742;49.306;8.636;2022-08-19T05:15:55;20.96;72.41
25945;SHT31;13742;49.306;8.636;2022-08-19T05:16:53;20.95;72.19
25945;SHT31;13742;49.306;8.636;2022-08-19T05:17:58;20.98;72.57
25945;SHT31;13742;49.306;8.636;2022-08-19T05:18:59;20.94;72.23
25945;SHT31;13742;49.306;8.636;2022-08-19T05:19:59;20.99;72.35
25945;SHT31;13742;49.306;8.636;2022-08-19T05:20:58;20.98;72.43
25945;SHT31;13742;49.306;8.636;2022-08-19T05:21:59;20.98;72.23
25945;SHT31;13742;49.306;8.636;2022-08-19T05:22:53;20.94;72.58
25945;SHT31;13742;49.306;8.636;2022-08-19T05:23:53;20.92;72.73
25945;SHT31;13742;49.306;8.636;2022-08-19T05:24:53;20.88;72.72
25945;SHT31;13742;49.306;8.636;2022-08-19T05:25:53;20.89;72.65
25945;SHT31;13742;49.306;8.636;2022-08-19T05:26:56;20.95;72.61
25945;SHT31;13742;49.306;8.636;2022-08-19T05:27:53;20.96;72.49
25945;SHT31;13742;49.306;8.636;2022-08-19T05:28:54;20.98;72.38
25945;SHT31;13742;49.306;8.636;2022-08-19T05:29:53;20.99;72.26
25945;SHT31;13742;49.306;8.636;2022-08-19T05:30:55;21.02;72.02
25945;SHT31;13742;49.306;8.636;2022-08-19T05:31:54;21.05;72.06
25945;SHT31;13742;49.306;8.636;2022-08-19T05:32:55;21.01;72.04
25945;SHT31;13742;49.306;8.636;2022-08-19T05:33:53;21.03;72.30
25945;SHT31;13742;49.306;8.636;2022-08-19T05:34:53;21.03;72.33
25945;SHT31;13742;49.306;8.636;2022-08-19T05:35:54;21.06;72.08
25945;SHT31;13742;49.306;8.636;2022-08-19T05:36:58;20.95;72.38
25945;SHT31;13742;49.306;8.636;2022-08-19T05:37:54;20.99;72.27
25945;SHT31;13742;49.306;8.636;2022-08-19T05:38:53;20.98;72.30
25945;SHT31;13742;49.306;8.636;2022-08-19T05:39:54;20.96;72.24
25945;SHT31;13742;49.306;8.636;2022-08-19T05:40:54;20.96;72.40
25945;SHT31;13742;49.306;8.636;2022-08-19T05:41:57;21.02;72.29
25945;SHT31;13742;49.306;8.636;2022-08-19T05:42:53;21.03;72.50
25945;SHT31;13742;49.306;8.636;2022-08-19T05:43:54;21.01;72.16
25945;SHT31;13742;49.306;8.636;2022-08-19T05:44:53;21.02;72.39
25945;SHT31;13742;49.306;8.636;2022-08-19T05:45:53;21.03;72.41
25945;SHT31;13742;49.306;8.636;2022-08-19T05:46:53;21.06;72.21
25945;SHT31;13742;49.306;8.636;2022-08-19T05:47:54;21.10;72.03
25945;SHT31;13742;49.306;8.636;2022-08-19T05:48:56;21.09;72.01
25945;SHT31;13742;49.306;8.636;2022-08-19T05:49:53;21.03;72.16
25945;SHT31;13742;49.306;8.636;2022-08-19T05:50:53;21.03;72.14
25945;SHT31;13742;49.306;8.636;2022-08-19T05:51:55;21.06;72.12
25945;SHT31;13742;49.306;8.636;2022-08-19T05:52:53;21.10;72.15
25945;SHT31;13742;49.306;8.636;2022-08-19T05:53:53;21.10;71.83
25945;SHT31;13742;49.306;8.636;2022-08-19T05:54:55;21.10;71.74
25945;SHT31;13742;49.306;8.636;2022-08-19T05:55:53;21.07;72.09
25945;SHT31;13742;49.306;8.636;2022-08-19T05:56:53;21.03;71.91
25945;SHT31;13742;49.306;8.636;2022-08-19T05:57:53;20.96;72.04
25945;SHT31;13742;49.306;8.636;2022-08-19T05:58:54;21.02;72.08
25945;SHT31;13742;49.306;8.636;2022-08-19T05:59:54;21.03;72.06
25945;SHT31;13742;49.306;8.636;2022-08-19T06:00:54;21.07;72.10
25945;SHT31;13742;49.306;8.636;2022-08-19T06:01:56;21.13;71.97
25945;SHT31;13742;49.306;8.636;2022-08-19T06:02:56;21.12;72.12
25945;SHT31;13742;49.306;8.636;2022-08-19T06:03:53;21.15;71.92
25945;SHT31;13742;49.306;8.636;2022-08-19T06:04:53;21.17;71.71
25945;SHT31;13742;49.306;8.636;2022-08-19T06:05:54;21.17;71.41
25945;SHT31;13742;49.306;8.636;2022-08-19T06:06:54;21.17;71.47
25945;SHT31;13742;49.306;8.636;2022-08-19T06:07:54;21.22;71.28
25945;SHT31;13742;49.306;8.636;2022-08-19T06:08:53;21.23;71.07
25945;SHT31;13742;49.306;8.636;2022-08-19T06:09:54;21.23;71.17
25945;SHT31;13742;49.306;8.636;2022-08-19T06:10:54;21.22;70.96
25945;SHT31;13742;49.306;8.636;2022-08-19T06:11:56;21.23;70.90
25945;SHT31;13742;49.306;8.636;2022-08-19T06:12:53;21.25;70.88
25945;SHT31;13742;49.306;8.636;2022-08-19T06:13:53;21.26;71.01
25945;SHT31;13742;49.306;8.636;2022-08-19T06:14:55;21.26;71.08
25945;SHT31;13742;49.306;8.636;2022-08-19T06:15:53;21.27;71.12
25945;SHT31;13742;49.306;8.636;2022-08-19T06:16:54;21.26;71.26
25945;SHT31;13742;49.306;8.636;2022-08-19T06:17:53;21.25;71.40
25945;SHT31;13742;49.306;8.636;2022-08-19T06:18:56;21.29;70.83
25945;SHT31;13742;49.306;8.636;2022-08-19T06:19:53;21.29;70.76
25945;SHT31;13742;49.306;8.636;2022-08-19T06:20:53;21.33;70.76
25945;SHT31;13742;49.306;8.636;2022-08-19T06:21:53;21.36;70.65